Terminal Aerodrome Forecast
Issued by NWS

Home | Current Version | Previous Version | Text Only | Print | Product List | Glossary On
Versions: 1 2 3 4 5 6 7 8 9 10 11 12
610
FTUS45 KFGZ 242342 RRA
TAFGCN
TAF
KGCN 242342Z 2500/2524 23020G30KT P6SM BKN110 BKN200
     FM250300 23010KT P6SM SCT040 BKN110
     FM251600 31015G25KT P6SM BKN110=

USA.gov is the U.S. government's official web portal to all federal, state and local government web resources and services.